Latest Weather Observations for Cairns

IDQ60801

Issued at 7:32 pm EST Friday 31 July 2015 (issued every 30 minutes, with the page automatically refreshed every 10 minutes)

About weather observations | Map of weather stations | Latest weather observations for QLD | Other Formats
Station Details ID: 031011 Name: CAIRNS AERO Lat: -16.87 Lon: 145.75 Height: 2.22 m
Data from the previous 72 hours. | See also: Recent months at Cairns
Date/Time
EST
Temp
°C
App
Temp
°C
Dew
Point
Rel
Hum
%
Delta-T
°C
Wind Press
QNH
hPa
Press
MSL
hPa
Rain
since 9 am
mm
Dir
 
Spd
km/h
Gust
km/h
Spd
kts
Gust
kts
31/07:00pm 20.9 19.6 16.8 77 2.5 SSE 19 26 10 14 1017.9 - 0.2
31/06:30pm 21.7 18.0 15.9 69 3.5 SE 30 35 16 19 1017.7 - 0.2
31/06:00pm 21.9 17.7 15.7 68 3.7 SE 32 39 17 21 1017.3 1017.2 0.2
31/05:30pm 22.6 18.3 15.4 64 4.3 SE 32 39 17 21 1017.0 - 0.2
31/05:00pm 23.0 18.5 15.5 62 4.5 SE 33 41 18 22 1016.8 - 0.2
31/04:30pm 23.7 18.8 16.3 63 4.5 SE 37 50 20 27 1016.7 - 0.2
31/04:00pm 24.4 20.1 16.0 59 5.1 ESE 33 46 18 25 1016.7 - 0.2
31/03:30pm 24.7 20.0 14.8 54 5.9 ESE 33 41 18 22 1016.5 - 0.2
31/03:00pm 25.4 20.4 16.2 56 5.6 SE 37 48 20 26 1016.8 1016.7 0.2
31/02:30pm 24.9 19.6 15.4 55 5.7 ESE 37 48 20 26 1017.1 - 0.2
31/02:00pm 25.4 20.3 15.7 55 5.9 SE 37 46 20 25 1017.4 - 0.2
31/01:30pm 25.5 20.6 15.2 53 6.2 SE 35 48 19 26 1017.6 - 0.2
31/01:00pm 25.2 19.8 15.0 53 6.1 SE 37 46 20 25 1017.9 - 0.2
31/12:30pm 24.9 19.9 16.0 57 5.4 SE 37 44 20 24 1018.5 - 0.2
31/12:00pm 24.7 20.1 16.2 59 5.2 SE 35 43 19 23 1019.0 1018.9 0.0
31/11:30am 24.2 19.7 17.4 65 4.2 SE 37 50 20 27 1019.6 - 0.0
31/11:00am 23.4 19.4 17.6 70 3.6 SE 35 44 19 24 1019.8 - 0.0
31/10:56am 23.3 19.0 17.7 71 3.5 SE 37 41 20 22 1020.0 - 0.0
31/10:30am 22.7 21.9 18.4 76 2.7 S 20 30 11 16 1020.4 - 0.0
31/10:00am 21.8 21.0 18.4 81 2.1 S 20 30 11 16 1020.6 - 0.0
31/09:30am 21.1 19.6 18.5 85 1.6 SSE 24 35 13 19 1020.7 - 0.0
31/09:00am 20.9 20.8 18.7 87 1.4 SSE 17 28 9 15 1020.7 1020.6 3.4
31/08:30am 20.0 18.0 18.4 90 1.0 S 26 35 14 19 1020.4 - 3.4
31/08:18am 20.1 19.0 17.8 86 1.4 S 20 30 11 16 1020.3 - 3.4
31/07:59am 19.3 18.4 17.8 91 0.9 SSE 19 26 10 14 1020.3 - 3.0
31/07:51am 19.6 18.4 17.1 85 1.5 S 19 26 10 14 1020.0 - 2.8
31/07:30am 19.3 17.9 17.0 86 1.4 S 20 32 11 17 1019.9 - 2.8
31/07:00am 19.1 16.9 16.9 87 1.3 S 24 33 13 18 1019.6 - 2.8
31/06:30am 18.9 18.5 17.1 89 1.1 SSE 15 20 8 11 1019.3 - 2.8
31/06:00am 18.6 17.5 17.3 92 0.8 S 19 33 10 18 1019.1 1019.0 2.6
31/05:57am 18.5 17.5 17.5 94 0.6 S 19 28 10 15 1019.1 - 2.6
31/05:45am 18.7 17.6 17.4 92 0.8 S 19 30 10 16 1019.1 - 2.0
31/05:30am 18.9 18.1 17.2 90 1.0 SSE 17 28 9 15 1019.2 - 1.4
31/05:00am 19.4 18.1 16.7 84 1.6 S 19 26 10 14 1018.8 - 0.8
31/04:30am 19.0 17.5 16.7 86 1.4 S 20 30 11 16 1018.9 - 0.8
31/04:00am 19.1 17.8 16.8 86 1.4 S 19 33 10 18 1019.1 - 0.6
31/03:30am 18.5 17.4 17.3 93 0.7 SSE 19 28 10 15 1019.3 - 0.6
31/03:00am 19.0 17.8 17.0 88 1.2 SSE 19 28 10 15 1019.3 1019.2 0.2
31/02:30am 19.9 18.7 16.2 79 2.2 S 17 28 9 15 1019.4 - 0.2
31/02:00am 19.8 19.0 16.1 79 2.2 S 15 24 8 13 1019.5 - 0.2
31/01:30am 19.5 18.8 16.5 83 1.8 S 15 20 8 11 1020.0 - 0.2
31/01:00am 19.4 18.0 16.6 84 1.7 S 19 32 10 17 1020.4 - 0.2
31/12:30am 19.8 17.3 16.1 79 2.2 S 24 33 13 18 1020.5 - 0.2
31/12:00am 19.7 18.5 16.2 80 2.1 S 17 32 9 17 1021.0 1020.9 0.2
 
Date/Time
EST
Temp
°C
App
Temp
°C
Dew
Point
Rel
Hum
%
Delta-T
°C
Wind Press
QNH
hPa
Press
MSL
hPa
Rain
since 9 am
mm
Dir
 
Spd
km/h
Gust
km/h
Spd
kts
Gust
kts
30/11:30pm 19.6 18.2 15.5 77 2.4 S 17 32 9 17 1020.8 - 0.2
30/11:00pm 19.7 17.7 15.6 77 2.4 SSE 20 28 11 15 1020.9 - 0.2
30/10:30pm 19.5 18.5 15.6 78 2.3 S 15 24 8 13 1020.9 - 0.2
30/10:00pm 19.9 17.8 15.3 75 2.7 S 20 32 11 17 1021.0 - 0.2
30/09:30pm 20.0 18.0 14.9 72 3.0 S 19 28 10 15 1020.9 - 0.2
30/09:00pm 20.2 19.0 15.1 72 3.0 S 15 24 8 13 1020.8 1020.7 0.2
30/08:30pm 19.9 18.5 15.5 76 2.6 S 17 26 9 14 1020.9 - 0.2
30/08:00pm 20.3 19.3 15.6 74 2.8 S 15 24 8 13 1020.7 - 0.2
30/07:30pm 20.4 18.5 15.3 72 3.0 SSE 19 32 10 17 1020.3 - 0.2
30/07:00pm 20.4 19.7 15.5 73 2.9 S 13 24 7 13 1020.0 - 0.2
30/06:30pm 20.6 20.3 15.4 72 3.1 S 11 19 6 10 1019.6 - 0.2
30/06:00pm 21.1 20.5 14.6 66 3.8 SSE 11 15 6 8 1019.4 1019.3 0.2
30/05:30pm 22.6 18.7 13.4 56 5.3 SE 26 32 14 17 1019.1 - 0.2
30/05:00pm 23.2 19.1 13.9 56 5.4 SE 28 37 15 20 1018.9 - 0.2
30/04:30pm 24.0 18.6 12.9 50 6.4 SE 33 41 18 22 1018.5 - 0.2
30/04:00pm 24.4 19.1 13.2 49 6.5 SE 33 41 18 22 1018.4 - 0.2
30/03:30pm 23.9 18.8 13.6 52 6.0 SE 33 41 18 22 1018.5 - 0.2
30/03:00pm 25.4 20.8 13.4 47 7.0 SE 30 41 16 22 1018.5 1018.4 0.2
30/02:30pm 25.0 20.1 14.2 51 6.4 SE 33 41 18 22 1018.7 - 0.2
30/02:00pm 25.3 19.9 13.9 49 6.7 SE 35 48 19 26 1019.1 - 0.2
30/01:30pm 25.5 19.8 12.9 45 7.3 SE 35 46 19 25 1019.4 - 0.2
30/01:00pm 25.7 20.1 13.4 46 7.2 SE 35 46 19 25 1019.7 - 0.2
30/12:30pm 25.6 20.4 14.5 50 6.6 SE 35 46 19 25 1020.1 - 0.2
30/12:00pm 24.9 18.6 13.4 48 6.7 SE 39 50 21 27 1020.5 1020.4 0.2
30/11:30am 25.0 18.8 15.0 53 6.0 SE 41 50 22 27 1020.8 - 0.0
30/11:00am 25.1 20.2 15.3 54 5.9 SE 35 46 19 25 1021.0 - 0.0
30/10:30am 24.5 19.3 15.5 57 5.4 SE 37 50 20 27 1021.3 - 0.0
30/10:00am 23.9 18.3 15.4 59 5.1 SE 39 54 21 29 1021.6 - 0.0
30/09:27am 23.8 18.8 16.0 61 4.7 SE 37 52 20 28 1021.6 - 0.0
30/09:00am 22.6 18.9 16.1 66 3.9 SSE 30 39 16 21 1021.3 1021.2 3.6
30/08:30am 22.1 19.0 16.5 70 3.4 SSE 28 35 15 19 1021.2 - 3.6
30/08:00am 20.7 18.4 16.7 78 2.4 SSE 24 33 13 18 1021.0 - 3.6
30/07:30am 20.5 19.5 16.7 79 2.3 S 17 28 9 15 1020.9 - 3.6
30/07:00am 20.2 18.4 16.9 81 2.0 SSE 22 33 12 18 1020.6 - 3.6
30/06:30am 20.3 19.4 16.8 80 2.1 SSE 17 26 9 14 1020.2 - 3.6
30/06:00am 20.4 19.0 16.9 80 2.1 SSE 20 33 11 18 1020.0 1019.9 3.6
30/05:30am 20.5 18.6 16.7 79 2.3 SSE 22 33 12 18 1019.8 - 3.6
30/05:00am 20.6 18.4 17.0 80 2.2 SSE 24 33 13 18 1019.6 - 3.6
30/04:30am 20.6 18.5 17.2 81 2.1 SSE 24 37 13 20 1019.5 - 3.6
30/04:00am 20.6 18.9 17.2 81 2.1 SSE 22 35 12 19 1019.4 - 3.6
30/03:30am 20.6 19.3 17.2 81 2.1 SSE 20 32 11 17 1019.5 - 3.6
30/03:00am 20.5 19.3 17.4 82 1.9 S 20 30 11 16 1019.6 1019.5 3.6
30/02:30am 20.6 19.0 17.5 82 1.9 SSE 22 32 12 17 1019.9 - 3.6
30/02:00am 20.3 18.5 17.9 86 1.5 SSE 24 33 13 18 1020.2 - 3.6
30/01:30am 20.5 19.5 17.9 85 1.6 SSE 20 28 11 15 1020.5 - 3.6
30/01:00am 20.4 18.7 18.0 86 1.5 SSE 24 35 13 19 1020.7 - 3.6
30/12:30am 20.0 18.9 18.6 92 0.9 SSE 22 32 12 17 1021.2 - 3.0
30/12:00am 20.8 19.1 18.0 84 1.7 SSE 24 33 13 18 1021.3 1021.2 1.0
 
Date/Time
EST
Temp
°C
App
Temp
°C
Dew
Point
Rel
Hum
%
Delta-T
°C
Wind Press
QNH
hPa
Press
MSL
hPa
Rain
since 9 am
mm
Dir
 
Spd
km/h
Gust
km/h
Spd
kts
Gust
kts
29/11:30pm 21.1 18.9 17.9 82 2.0 SSE 26 35 14 19 1021.6 - 1.0
29/11:00pm 20.8 19.1 18.0 84 1.7 SSE 24 35 13 19 1021.9 - 1.0
29/10:30pm 20.9 19.2 18.0 83 1.8 SSE 24 33 13 18 1022.1 - 1.0
29/10:00pm 20.8 19.5 18.2 85 1.6 SSE 22 32 12 17 1021.9 - 0.8
29/09:30pm 20.7 19.8 18.3 86 1.5 SSE 20 30 11 16 1022.0 - 0.8
29/09:00pm 20.7 20.1 18.4 87 1.4 S 19 33 10 18 1022.0 1021.9 0.6
29/08:30pm 20.3 18.4 18.5 89 1.1 SSE 26 37 14 20 1021.8 - 0.6
29/08:24pm 20.2 17.3 18.8 92 0.9 SSE 32 39 17 21 1021.7 - 0.6
29/08:08pm 20.4 18.6 18.8 90 1.0 SSE 26 33 14 18 1021.7 - 0.2
29/08:00pm 20.7 19.5 18.3 86 1.5 SSE 22 33 12 18 1021.5 - 0.0
29/07:30pm 20.5 18.8 18.1 86 1.5 SSE 24 35 13 19 1021.2 - 0.0
29/07:00pm 21.4 19.5 17.7 79 2.3 SSE 24 33 13 18 1020.6 - 0.0
29/06:30pm 21.4 19.6 17.8 80 2.2 SSE 24 32 13 17 1020.4 - 0.0
29/06:00pm 21.4 18.8 17.8 80 2.2 SSE 28 37 15 20 1020.1 1020.0 0.0
29/05:41pm 21.5 18.4 17.6 78 2.4 SSE 30 48 16 26 1019.9 - 0.0
29/05:30pm 21.6 18.5 17.5 77 2.5 S 30 44 16 24 1019.8 - 0.0
29/05:00pm 21.7 18.1 17.3 76 2.7 SSE 32 44 17 24 1019.7 - 0.0
29/04:30pm 21.7 18.1 17.1 75 2.8 SSE 32 41 17 22 1019.5 - 0.0
29/04:00pm 22.1 17.8 17.0 73 3.1 SSE 35 48 19 26 1019.3 - 0.0
29/03:30pm 22.6 18.7 16.9 70 3.5 SSE 33 48 18 26 1019.2 - 0.0
29/03:00pm 22.9 18.1 16.7 68 3.8 SSE 37 52 20 28 1019.4 1019.3 0.0
29/02:35pm 25.0 21.2 17.3 62 4.8 SSE 33 52 18 28 1019.4 - 0.0
29/02:30pm 25.3 20.8 17.4 61 4.9 SSE 37 52 20 28 1019.3 - 0.0
29/02:00pm 24.8 21.1 17.0 62 4.8 SSE 32 46 17 25 1019.5 - 0.0
29/01:30pm 24.3 20.3 16.8 63 4.6 SSE 33 50 18 27 1019.8 - 0.0
29/01:21pm 24.0 20.0 16.6 63 4.5 SSE 33 52 18 28 1020.0 - 0.0
29/01:00pm 24.5 20.6 16.9 62 4.7 SSE 33 44 18 24 1020.2 - 0.0
29/12:30pm 25.6 20.9 16.9 58 5.4 SSE 37 48 20 26 1020.6 - 0.0
29/12:00pm 24.3 20.4 16.4 61 4.8 SSE 32 44 17 24 1021.0 1020.9 0.0
29/11:30am 24.5 20.3 16.3 60 5.0 SSE 33 48 18 26 1021.5 - 0.0
29/11:09am 23.6 20.4 16.2 63 4.5 S 28 46 15 25 1021.9 - 0.0
29/11:00am 23.6 20.6 16.7 65 4.2 S 28 41 15 22 1022.2 - 0.0
29/10:30am 22.7 18.4 15.9 65 4.1 SSE 33 44 18 24 1022.4 - 0.0
29/10:00am 22.6 18.9 15.9 66 4.0 SSE 30 43 16 23 1022.6 - 0.0
29/09:30am 22.3 18.0 16.0 67 3.8 SSE 33 48 18 26 1022.7 - 0.0
29/09:00am 21.4 16.6 15.7 70 3.4 SSE 35 48 19 26 1022.4 1022.3 5.8
29/08:30am 21.1 15.6 15.7 71 3.2 SSE 39 57 21 31 1022.1 - 5.8
29/08:25am 20.9 15.8 15.9 73 3.0 SSE 37 57 20 31 1021.8 - 5.8
29/08:00am 20.8 17.1 15.9 73 2.9 S 30 43 16 23 1022.0 - 5.8
29/07:30am 20.5 16.6 15.6 73 2.9 SSE 30 41 16 22 1021.9 - 5.8
29/07:00am 20.4 16.2 15.7 74 2.8 SSE 32 43 17 23 1021.5 - 5.8
29/06:30am 20.4 15.8 16.0 76 2.6 SSE 35 56 19 30 1021.1 - 5.8
29/06:20am 20.6 16.6 16.1 75 2.7 SSE 32 50 17 27 1020.8 - 5.8
29/06:00am 20.4 16.9 16.6 79 2.3 SSE 30 37 16 20 1020.8 1020.7 5.8
29/05:30am 20.4 16.4 16.8 80 2.2 SSE 33 46 18 25 1020.6 - 5.8
29/05:00am 20.7 18.0 16.7 78 2.4 SSE 26 37 14 20 1020.4 - 5.8
29/04:30am 20.6 17.7 17.0 80 2.2 SSE 28 35 15 19 1020.5 - 5.6
29/04:00am 20.8 17.5 17.0 79 2.3 SSE 30 39 16 21 1020.5 - 5.6
29/03:30am 20.7 19.2 17.6 82 1.9 SSE 22 33 12 18 1020.7 - 5.6
29/03:00am 20.6 19.0 18.3 87 1.4 SSE 24 33 13 18 1020.7 1020.6 5.6
29/02:30am 20.5 19.1 18.7 89 1.1 SSE 24 33 13 18 1020.7 - 5.6
29/02:00am 20.7 19.7 18.8 89 1.2 SSE 22 33 12 18 1020.7 - 5.4
29/01:30am 20.8 20.3 18.7 88 1.3 S 19 28 10 15 1020.9 - 5.4
29/01:00am 20.8 20.8 18.9 89 1.2 S 17 26 9 14 1021.1 - 5.4
29/12:30am 20.9 20.3 18.8 88 1.3 S 20 32 11 17 1021.3 - 5.4
29/12:00am 20.7 20.3 18.9 89 1.1 S 19 32 10 17 1021.5 1021.4 5.4
 
Date/Time
EST
Temp
°C
App
Temp
°C
Dew
Point
Rel
Hum
%
Delta-T
°C
Wind Press
QNH
hPa
Press
MSL
hPa
Rain
since 9 am
mm
Dir
 
Spd
km/h
Gust
km/h
Spd
kts
Gust
kts
28/11:51pm 20.7 20.4 19.1 90 1.0 SSE 19 30 10 16 1021.6 - 5.4
28/11:30pm 20.3 20.8 19.3 94 0.6 SSE 15 24 8 13 1022.0 - 5.2
28/11:15pm 20.3 20.8 19.2 93 0.7 SSE 15 19 8 10 1022.1 - 4.6
28/11:00pm 20.4 20.9 19.3 93 0.7 SSE 15 19 8 10 1022.2 - 4.0
28/10:30pm 20.8 20.8 18.9 89 1.2 SSE 17 24 9 13 1022.4 - 3.2
28/10:00pm 20.6 20.2 18.8 89 1.1 S 19 28 10 15 1022.5 - 3.2
28/09:30pm 20.5 20.5 18.9 90 1.0 SSE 17 26 9 14 1022.7 - 3.2
28/09:25pm 20.4 20.5 19.1 92 0.8 SSE 17 26 9 14 1022.7 - 3.2
28/09:00pm 20.6 20.2 19.0 90 1.0 S 19 28 10 15 1022.5 1022.4 2.4
28/08:39pm 20.8 20.2 18.9 89 1.2 S 20 32 11 17 1022.4 - 2.0
28/08:30pm 20.8 20.2 18.9 89 1.2 S 20 30 11 16 1022.3 - 2.0
28/08:00pm 20.8 19.4 18.9 89 1.2 SSE 24 35 13 19 1022.0 - 2.0

Other Formats:

Comma delimited format used in spreadsheet applications
http://www.bom.gov.au/fwo/IDQ60801/IDQ60801.94287.axf

JavaScript Object Notation format (JSON) in row-major order
http://www.bom.gov.au/fwo/IDQ60801/IDQ60801.94287.json